Time;durP1;ratioP1;P1;durP2;ratioP2;P2;SDS_P1;SDS_P2;PMS_P1;PMS_P2;Temp;Humidity;BMP_temperature;BMP_pressure;BME280_temperature;BME280_humidity;BME280_pressure;Samples;Min_cycle;Max_cycle;Signal;HPM_P1;HPM_P2
2023/10/23 00:02:19;;;;;;;7.35;6.38;;;6.50;99.90;;;;;;5023400;28;20377;-84
2023/10/23 00:04:45;;;;;;;7.10;6.40;;;6.50;99.90;;;;;;5027554;28;20717;-84
2023/10/23 00:07:10;;;;;;;8.57;6.13;;;6.50;99.90;;;;;;5025506;28;20041;-83
2023/10/23 00:09:37;;;;;;;7.40;6.13;;;6.40;99.90;;;;;;5022948;28;20037;-84
2023/10/23 00:12:02;;;;;;;6.90;5.85;;;6.50;99.90;;;;;;5006458;28;20049;-84
2023/10/23 00:14:28;;;;;;;7.15;5.70;;;6.40;99.90;;;;;;5026376;28;20052;-84
2023/10/23 00:16:54;;;;;;;7.53;6.20;;;6.40;99.90;;;;;;5009999;28;20076;-84
2023/10/23 00:19:21;;;;;;;7.15;5.85;;;6.40;99.90;;;;;;5023173;28;20087;-83
2023/10/23 00:21:47;;;;;;;9.77;6.20;;;6.40;99.90;;;;;;5025124;28;20136;-84
2023/10/23 00:24:12;;;;;;;8.10;7.00;;;6.30;99.90;;;;;;5028521;28;20096;-84
2023/10/23 00:26:38;;;;;;;8.65;6.35;;;6.30;99.90;;;;;;5029178;28;20099;-84
2023/10/23 00:29:04;;;;;;;6.38;5.78;;;6.30;99.90;;;;;;5029335;28;20045;-84
2023/10/23 00:31:29;;;;;;;6.78;6.07;;;6.30;99.90;;;;;;5011123;28;20081;-84
2023/10/23 00:33:55;;;;;;;9.68;6.90;;;6.30;99.90;;;;;;5026666;28;20099;-84
2023/10/23 00:36:20;;;;;;;6.50;5.63;;;6.20;99.90;;;;;;5029078;28;20045;-84
2023/10/23 00:38:46;;;;;;;7.85;6.30;;;6.20;99.90;;;;;;5029860;28;20033;-83
2023/10/23 00:41:12;;;;;;;6.60;5.90;;;6.20;99.90;;;;;;5029388;28;20045;-84
2023/10/23 00:43:37;;;;;;;6.32;5.70;;;6.20;99.90;;;;;;5008632;28;20661;-84
2023/10/23 00:46:11;;;;;;;6.45;5.75;;;6.20;99.90;;;;;;5029023;28;20136;-84
2023/10/23 00:48:36;;;;;;;6.05;5.47;;;6.20;99.90;;;;;;5027874;28;20046;-84
2023/10/23 00:51:03;;;;;;;6.90;5.65;;;6.20;99.90;;;;;;5028030;28;20404;-84
2023/10/23 00:53:33;;;;;;;6.63;5.93;;;6.20;99.90;;;;;;5042160;28;20124;-84
2023/10/23 00:56:00;;;;;;;6.65;6.05;;;6.20;99.90;;;;;;5026505;28;20052;-84
2023/10/23 00:58:25;;;;;;;7.15;5.93;;;6.10;99.90;;;;;;5028818;28;20559;-84
2023/10/23 01:00:53;;;;;;;9.27;6.00;;;6.10;99.90;;;;;;5011568;28;20168;-84
2023/10/23 01:03:19;;;;;;;7.15;5.85;;;6.10;99.90;;;;;;5028863;28;20111;-84
2023/10/23 01:05:45;;;;;;;6.75;5.82;;;6.10;99.90;;;;;;5029026;28;20041;-85
2023/10/23 01:08:11;;;;;;;9.90;6.07;;;6.10;99.90;;;;;;5027718;28;20045;-84
2023/10/23 01:10:36;;;;;;;7.15;6.43;;;6.10;99.90;;;;;;5008014;28;20049;-84
2023/10/23 01:13:08;;;;;;;7.75;6.35;;;6.10;99.90;;;;;;5011329;28;20095;-84
2023/10/23 01:15:35;;;;;;;7.25;6.38;;;6.10;99.90;;;;;;5026887;28;20501;-84
2023/10/23 01:18:01;;;;;;;6.53;5.93;;;6.10;99.90;;;;;;5027701;28;20083;-84
2023/10/23 01:20:30;;;;;;;7.85;5.95;;;6.00;99.90;;;;;;5010834;28;20159;-84
2023/10/23 01:23:01;;;;;;;7.32;5.60;;;6.00;99.90;;;;;;5029936;28;20053;-84
2023/10/23 01:25:29;;;;;;;7.25;6.30;;;6.00;99.90;;;;;;5017958;28;20057;-84
2023/10/23 01:27:55;;;;;;;8.80;6.70;;;6.00;99.90;;;;;;5025327;28;20103;-84
2023/10/23 01:30:21;;;;;;;6.72;6.03;;;6.00;99.90;;;;;;5028774;28;20039;-84
2023/10/23 01:32:47;;;;;;;7.45;6.60;;;6.00;99.90;;;;;;5027417;28;20041;-84
2023/10/23 01:35:13;;;;;;;8.77;6.40;;;6.00;99.90;;;;;;5028023;28;20127;-84
2023/10/23 01:37:42;;;;;;;8.00;6.78;;;5.90;99.90;;;;;;5018743;28;20153;-84
2023/10/23 01:40:09;;;;;;;7.93;7.05;;;6.00;99.90;;;;;;5009618;28;20049;-84
2023/10/23 01:42:34;;;;;;;7.50;6.80;;;5.90;99.90;;;;;;5010736;28;20080;-84
2023/10/23 01:45:00;;;;;;;8.25;7.45;;;5.90;99.90;;;;;;5025923;28;20164;-84
2023/10/23 01:47:26;;;;;;;8.23;7.25;;;5.90;99.90;;;;;;5025549;28;20136;-84
2023/10/23 01:49:52;;;;;;;8.10;7.18;;;5.90;99.90;;;;;;5026881;28;20052;-84
2023/10/23 01:52:18;;;;;;;9.13;7.00;;;5.90;99.90;;;;;;5022977;28;20411;-84
2023/10/23 01:54:44;;;;;;;7.68;6.97;;;5.80;99.90;;;;;;5003514;28;20095;-84
2023/10/23 01:57:10;;;;;;;7.72;6.75;;;5.80;99.90;;;;;;5020469;28;20053;-84
2023/10/23 01:59:36;;;;;;;7.57;6.88;;;5.80;99.90;;;;;;5025730;28;20507;-84
2023/10/23 02:02:02;;;;;;;7.75;6.47;;;6.10;99.90;;;;;;5022099;28;20500;-84
2023/10/23 02:04:28;;;;;;;10.25;6.78;;;5.80;99.90;;;;;;5016288;28;20052;-84
2023/10/23 02:06:54;;;;;;;7.57;6.80;;;5.80;99.90;;;;;;5026668;28;20064;-84
2023/10/23 02:09:20;;;;;;;7.90;7.10;;;5.80;99.90;;;;;;5009184;28;20046;-84
2023/10/23 02:11:46;;;;;;;6.63;6.03;;;5.70;99.90;;;;;;5009668;28;20049;-84
2023/10/23 02:14:12;;;;;;;11.30;7.40;;;5.20;99.90;;;;;;5026482;28;20072;-84
2023/10/23 02:16:37;;;;;;;8.10;6.60;;;5.70;99.90;;;;;;5026044;28;20052;-84
2023/10/23 02:19:03;;;;;;;7.95;7.00;;;5.70;99.90;;;;;;5026018;28;20049;-84
2023/10/23 02:21:29;;;;;;;8.13;7.32;;;5.70;99.90;;;;;;5023691;28;20774;-84
2023/10/23 02:23:54;;;;;;;8.95;7.00;;;5.70;99.90;;;;;;5025901;28;20049;-84
2023/10/23 02:26:21;;;;;;;8.60;6.97;;;5.60;99.90;;;;;;5026477;28;20099;-84
2023/10/23 02:28:47;;;;;;;7.63;6.80;;;5.60;99.90;;;;;;5020883;28;20045;-84
2023/10/23 02:31:12;;;;;;;9.13;7.18;;;5.60;99.90;;;;;;5022602;28;20104;-84
2023/10/23 02:33:38;;;;;;;7.97;6.97;;;5.50;99.90;;;;;;5025976;28;20049;-84
2023/10/23 02:36:04;;;;;;;8.85;7.18;;;5.50;99.90;;;;;;5025182;28;20057;-84
2023/10/23 02:38:30;;;;;;;9.40;6.55;;;5.50;99.90;;;;;;5026673;28;20102;-85
2023/10/23 02:40:56;;;;;;;7.53;6.82;;;5.50;99.90;;;;;;5025193;28;20162;-84
2023/10/23 02:43:21;;;;;;;7.28;6.68;;;5.50;99.90;;;;;;5007710;28;20037;-84
2023/10/23 02:45:48;;;;;;;7.38;6.68;;;5.40;99.90;;;;;;5026809;28;20046;-84
2023/10/23 02:48:15;;;;;;;7.95;6.88;;;5.80;99.90;;;;;;5028143;28;20080;-84
2023/10/23 02:50:40;;;;;;;11.20;7.53;;;5.40;99.90;;;;;;5023811;28;20052;-84
2023/10/23 02:53:07;;;;;;;7.32;6.50;;;5.40;99.90;;;;;;5025715;28;20657;-84
2023/10/23 02:55:33;;;;;;;8.50;6.18;;;5.80;99.90;;;;;;5025539;28;20045;-84
2023/10/23 02:58:00;;;;;;;7.97;6.60;;;5.40;99.90;;;;;;5025038;28;20050;-84
2023/10/23 03:00:26;;;;;;;6.93;6.15;;;5.40;99.90;;;;;;5021807;28;20080;-84
2023/10/23 03:02:51;;;;;;;6.53;5.95;;;5.30;99.90;;;;;;5025365;28;20041;-84
2023/10/23 03:05:17;;;;;;;6.10;5.50;;;5.40;99.90;;;;;;5026003;28;20082;-84
2023/10/23 03:07:43;;;;;;;6.50;5.90;;;5.30;99.90;;;;;;5024230;28;20091;-84
2023/10/23 03:10:09;;;;;;;6.10;5.47;;;5.30;99.90;;;;;;5018305;28;20056;-84
2023/10/23 03:12:37;;;;;;;5.43;4.93;;;5.30;99.90;;;;;;5007242;28;20049;-84
2023/10/23 03:15:04;;;;;;;5.82;5.30;;;5.70;99.90;;;;;;5021474;28;20124;-84
2023/10/23 03:17:30;;;;;;;5.63;5.13;;;5.20;99.90;;;;;;5006576;28;20088;-84
2023/10/23 03:19:56;;;;;;;5.90;5.05;;;5.20;99.90;;;;;;5016953;28;20053;-84
2023/10/23 03:22:21;;;;;;;6.45;5.40;;;5.20;99.90;;;;;;5011011;28;20048;-84
2023/10/23 03:24:47;;;;;;;5.10;4.70;;;5.20;99.90;;;;;;5028638;28;20053;-84
2023/10/23 03:27:13;;;;;;;5.63;5.13;;;5.20;99.90;;;;;;5027393;28;20103;-84
2023/10/23 03:29:40;;;;;;;5.38;4.85;;;5.20;99.90;;;;;;5026873;28;20890;-83
2023/10/23 03:32:06;;;;;;;5.88;5.35;;;5.20;99.90;;;;;;5029054;28;20070;-84
2023/10/23 03:34:32;;;;;;;5.28;4.78;;;5.20;99.90;;;;;;5028514;28;20049;-83
2023/10/23 03:36:58;;;;;;;4.72;4.32;;;5.20;99.90;;;;;;5011988;28;20570;-84
2023/10/23 03:39:23;;;;;;;4.82;4.32;;;5.10;99.90;;;;;;5028870;28;20048;-83
2023/10/23 03:41:49;;;;;;;4.72;4.32;;;5.10;99.90;;;;;;5028939;28;20045;-83
2023/10/23 03:44:14;;;;;;;6.80;5.43;;;5.10;99.90;;;;;;5026897;28;20041;-84
2023/10/23 03:46:40;;;;;;;6.07;5.47;;;5.10;99.90;;;;;;5027838;28;20060;-83
2023/10/23 03:49:06;;;;;;;6.25;5.65;;;5.10;99.90;;;;;;5047138;28;20152;-83
2023/10/23 03:51:31;;;;;;;7.22;5.57;;;5.10;99.90;;;;;;5023195;28;20044;-83
2023/10/23 03:53:57;;;;;;;6.03;5.50;;;5.20;99.90;;;;;;5009752;28;20080;-83
2023/10/23 03:56:23;;;;;;;7.07;6.43;;;5.20;99.90;;;;;;5028160;28;20544;-83
2023/10/23 03:58:48;;;;;;;7.35;6.65;;;5.20;99.90;;;;;;5050216;28;20037;-83
2023/10/23 04:01:14;;;;;;;6.82;6.10;;;5.20;99.90;;;;;;5046792;28;20061;-83
2023/10/23 04:03:39;;;;;;;6.65;5.85;;;5.20;99.90;;;;;;5033364;28;20052;-84
2023/10/23 04:06:05;;;;;;;9.35;6.40;;;5.20;99.90;;;;;;5030417;28;20053;-83
2023/10/23 04:08:31;;;;;;;7.05;6.35;;;5.10;99.90;;;;;;5029952;28;20045;-83
2023/10/23 04:10:58;;;;;;;8.13;6.97;;;5.20;99.90;;;;;;5030871;28;20052;-84
2023/10/23 04:13:25;;;;;;;7.05;6.35;;;5.10;99.90;;;;;;5033081;28;20076;-83
2023/10/23 04:15:52;;;;;;;7.55;6.75;;;5.10;99.90;;;;;;5029496;28;20073;-84
2023/10/23 04:18:17;;;;;;;8.02;6.90;;;5.10;99.90;;;;;;5032810;28;20041;-83
2023/10/23 04:20:46;;;;;;;8.93;7.47;;;5.10;99.90;;;;;;5031832;28;20068;-83
2023/10/23 04:23:11;;;;;;;7.78;6.55;;;5.10;99.90;;;;;;5047720;28;20761;-83
2023/10/23 04:25:37;;;;;;;7.80;6.43;;;5.10;99.90;;;;;;5013317;28;20106;-83
2023/10/23 04:28:03;;;;;;;7.93;7.03;;;5.10;99.90;;;;;;5032226;28;20041;-83
2023/10/23 04:30:29;;;;;;;7.43;6.72;;;5.10;99.90;;;;;;5029347;28;20065;-84
2023/10/23 04:32:54;;;;;;;7.35;6.57;;;5.10;99.90;;;;;;5031418;28;20077;-84
2023/10/23 04:35:20;;;;;;;8.65;6.97;;;5.00;99.90;;;;;;5030280;28;20102;-83
2023/10/23 04:37:46;;;;;;;6.85;6.18;;;5.00;99.90;;;;;;5032637;28;20133;-84
2023/10/23 04:40:12;;;;;;;8.75;6.68;;;5.00;99.90;;;;;;5032241;28;20049;-84
2023/10/23 04:42:37;;;;;;;8.48;6.38;;;5.00;99.90;;;;;;5050150;28;20045;-83
2023/10/23 04:45:04;;;;;;;8.10;7.30;;;5.00;99.90;;;;;;5030261;28;20091;-83
2023/10/23 04:47:29;;;;;;;8.18;7.32;;;5.00;99.90;;;;;;5031658;28;20055;-84
2023/10/23 04:49:55;;;;;;;7.10;6.38;;;5.00;99.90;;;;;;5028200;28;20052;-84
2023/10/23 04:52:20;;;;;;;8.95;8.05;;;4.90;99.90;;;;;;5030743;28;20045;-84
2023/10/23 04:54:46;;;;;;;8.35;7.45;;;4.90;99.90;;;;;;5047627;28;20053;-84
2023/10/23 04:57:12;;;;;;;7.57;6.72;;;4.90;99.90;;;;;;5048906;28;20049;-83
2023/10/23 04:59:37;;;;;;;7.30;6.60;;;4.90;99.90;;;;;;5028326;28;20052;-83
2023/10/23 05:02:03;;;;;;;7.95;7.18;;;4.80;99.90;;;;;;5061733;28;20111;-83
2023/10/23 05:04:30;;;;;;;8.30;7.47;;;4.80;99.90;;;;;;5048098;28;20800;-84
2023/10/23 05:06:57;;;;;;;8.77;7.53;;;5.30;99.90;;;;;;5023343;28;20099;-83
2023/10/23 05:09:22;;;;;;;7.80;7.00;;;4.80;99.90;;;;;;5048067;28;20152;-83
2023/10/23 05:11:48;;;;;;;8.38;7.45;;;4.80;99.90;;;;;;5030791;28;20139;-82
2023/10/23 05:14:14;;;;;;;8.15;6.93;;;4.80;99.90;;;;;;5048942;28;20057;-84
2023/10/23 05:16:41;;;;;;;8.15;7.35;;;4.80;99.90;;;;;;5046634;28;20051;-82
2023/10/23 05:19:08;;;;;;;11.52;8.07;;;4.80;99.90;;;;;;5049358;28;20049;-84
2023/10/23 05:21:33;;;;;;;9.02;7.65;;;4.80;99.90;;;;;;5010693;28;20057;-83
2023/10/23 05:24:00;;;;;;;8.75;7.30;;;4.80;99.90;;;;;;5028174;28;20050;-83
2023/10/23 05:26:26;;;;;;;7.38;6.70;;;4.80;99.90;;;;;;5027794;28;20403;-83
2023/10/23 05:28:53;;;;;;;10.40;7.60;;;4.80;99.90;;;;;;5025935;28;20049;-84
2023/10/23 05:31:19;;;;;;;8.57;7.63;;;4.80;99.90;;;;;;5008439;28;20495;-83
2023/10/23 05:33:45;;;;;;;9.60;8.57;;;4.80;99.90;;;;;;5008416;28;20049;-83
2023/10/23 05:36:10;;;;;;;8.63;7.72;;;4.80;99.90;;;;;;5026746;28;20092;-84
2023/10/23 05:38:38;;;;;;;9.32;8.27;;;4.70;99.90;;;;;;5007378;28;20591;-84
2023/10/23 05:41:07;;;;;;;8.52;7.38;;;4.70;99.90;;;;;;5027221;28;20531;-84
2023/10/23 05:43:33;;;;;;;9.65;7.97;;;4.70;99.90;;;;;;5025659;28;20049;-85
2023/10/23 05:46:02;;;;;;;8.85;7.95;;;4.80;99.90;;;;;;5024934;28;20042;-84
2023/10/23 05:48:28;;;;;;;8.00;7.13;;;4.70;99.90;;;;;;5027678;28;20423;-83
2023/10/23 05:51:01;;;;;;;8.05;7.25;;;4.70;99.90;;;;;;5026261;28;20049;-84
2023/10/23 05:53:27;;;;;;;10.05;7.80;;;4.70;99.90;;;;;;5010290;28;20043;-84
2023/10/23 05:55:54;;;;;;;9.00;8.10;;;4.70;99.90;;;;;;5027812;28;20068;-85
2023/10/23 05:58:20;;;;;;;8.38;6.75;;;4.70;99.90;;;;;;5027593;28;20072;-85
2023/10/23 06:00:45;;;;;;;9.98;7.85;;;4.70;99.90;;;;;;5028076;28;20429;-85
2023/10/23 06:03:11;;;;;;;9.27;8.35;;;4.70;99.90;;;;;;5027173;28;20412;-85
2023/10/23 06:05:43;;;;;;;8.85;6.95;;;4.70;99.90;;;;;;5028168;28;20053;-85
2023/10/23 06:08:09;;;;;;;8.23;7.38;;;4.70;99.90;;;;;;5010841;28;20041;-86
2023/10/23 06:10:43;;;;;;;8.80;8.00;;;4.70;99.90;;;;;;5028618;28;20045;-87
2023/10/23 06:13:08;;;;;;;9.65;7.70;;;4.70;99.90;;;;;;5028274;28;20562;-86
2023/10/23 06:15:34;;;;;;;10.52;7.68;;;4.70;99.90;;;;;;5006630;28;20052;-88
2023/10/23 06:18:04;;;;;;;8.27;7.10;;;4.80;99.90;;;;;;5015481;28;20041;-85
2023/10/23 06:20:30;;;;;;;6.88;5.80;;;4.70;99.90;;;;;;5026611;28;20049;-85
2023/10/23 06:22:56;;;;;;;8.70;7.65;;;4.80;99.90;;;;;;5027387;28;20063;-86
2023/10/23 06:25:22;;;;;;;8.93;7.75;;;4.80;99.90;;;;;;5027787;28;20045;-86
2023/10/23 06:27:47;;;;;;;8.55;7.60;;;4.80;99.90;;;;;;5027408;28;20679;-86
2023/10/23 06:30:13;;;;;;;10.85;7.38;;;4.80;99.90;;;;;;5028220;28;20045;-86
2023/10/23 06:32:38;;;;;;;7.57;6.68;;;4.80;99.90;;;;;;5027038;28;20076;-86
2023/10/23 06:35:04;;;;;;;10.27;8.00;;;4.80;99.90;;;;;;5027245;28;20068;-86
2023/10/23 06:37:33;;;;;;;9.10;8.20;;;4.80;99.90;;;;;;5027180;28;20046;-87
2023/10/23 06:39:59;;;;;;;9.25;8.32;;;4.80;99.90;;;;;;5010712;28;20049;-86
2023/10/23 06:42:27;;;;;;;8.02;7.22;;;4.80;99.90;;;;;;5026594;28;20132;-86
2023/10/23 06:44:53;;;;;;;10.13;9.15;;;4.90;99.90;;;;;;5015590;28;20053;-86
2023/10/23 06:47:18;;;;;;;11.45;9.48;;;4.90;99.90;;;;;;5025974;28;20042;-87
2023/10/23 06:49:44;;;;;;;11.98;9.27;;;4.90;99.90;;;;;;5024244;28;20092;-89
2023/10/23 06:52:10;;;;;;;10.27;9.27;;;5.00;99.90;;;;;;5025202;28;20091;-84
2023/10/23 06:54:36;;;;;;;10.10;8.93;;;5.00;99.90;;;;;;5025521;28;20045;-84
2023/10/23 06:57:06;;;;;;;9.85;8.85;;;5.00;99.90;;;;;;5023322;28;20186;-85
2023/10/23 06:59:38;;;;;;;9.02;8.10;;;5.10;99.90;;;;;;5012856;28;20471;-86
2023/10/23 07:02:03;;;;;;;10.10;8.60;;;5.00;99.90;;;;;;5027103;28;20491;-85
2023/10/23 07:04:29;;;;;;;9.70;8.63;;;5.00;99.90;;;;;;5027357;28;20045;-86
2023/10/23 07:06:55;;;;;;;12.90;9.18;;;5.70;99.90;;;;;;5026145;28;20048;-86
2023/10/23 07:09:21;;;;;;;11.52;10.35;;;5.10;99.90;;;;;;5026945;28;20140;-86
2023/10/23 07:11:51;;;;;;;12.25;10.60;;;5.10;99.90;;;;;;5026264;28;20125;-86
2023/10/23 07:14:17;;;;;;;11.68;9.95;;;5.20;99.90;;;;;;5026922;28;20555;-85
2023/10/23 07:16:42;;;;;;;11.05;9.40;;;5.20;99.90;;;;;;5026441;28;20121;-85
2023/10/23 07:19:10;;;;;;;12.25;10.35;;;5.20;99.90;;;;;;5027098;28;20454;-84
2023/10/23 07:21:39;;;;;;;13.63;12.32;;;5.60;99.90;;;;;;5026303;28;20073;-84
2023/10/23 07:24:05;;;;;;;12.13;10.85;;;5.30;99.90;;;;;;5028201;28;20084;-84
2023/10/23 07:26:31;;;;;;;12.57;11.02;;;5.40;99.90;;;;;;5026231;28;20060;-84
2023/10/23 07:28:57;;;;;;;12.13;9.60;;;5.50;99.90;;;;;;5025433;28;20049;-84
2023/10/23 07:31:22;;;;;;;11.52;9.85;;;5.60;99.90;;;;;;5024009;28;20093;-84
2023/10/23 07:33:50;;;;;;;10.93;9.27;;;5.60;99.90;;;;;;5007842;28;20053;-84
2023/10/23 07:36:18;;;;;;;12.65;10.68;;;5.70;99.90;;;;;;5024757;28;20054;-84
2023/10/23 07:38:44;;;;;;;13.43;10.95;;;5.80;99.90;;;;;;5024329;28;20053;-84
2023/10/23 07:41:12;;;;;;;26.45;13.40;;;6.20;99.90;;;;;;5026353;28;20052;-84
2023/10/23 07:43:38;;;;;;;18.23;12.57;;;6.00;99.90;;;;;;5026302;28;20057;-84
2023/10/23 07:46:10;;;;;;;18.17;13.25;;;6.00;99.90;;;;;;5026138;28;20042;-83
2023/10/23 07:48:36;;;;;;;27.25;11.25;;;6.20;99.90;;;;;;5009687;28;20048;-84
2023/10/23 07:51:05;;;;;;;15.02;10.25;;;6.30;99.90;;;;;;5025819;28;20054;-84
2023/10/23 07:53:32;;;;;;;20.85;9.00;;;6.80;99.90;;;;;;5026225;28;20050;-84
2023/10/23 07:55:59;;;;;;;27.73;10.43;;;6.50;99.90;;;;;;5026590;28;20048;-82
2023/10/23 07:58:24;;;;;;;23.15;8.95;;;6.60;99.90;;;;;;5026670;28;20427;-84
2023/10/23 08:00:53;;;;;;;43.92;10.65;;;6.70;99.90;;;;;;5026901;28;20045;-83
2023/10/23 08:03:19;;;;;;;32.80;9.93;;;6.80;99.90;;;;;;5026693;28;20621;-83
2023/10/23 08:05:45;;;;;;;49.78;11.25;;;6.90;99.90;;;;;;5023798;28;20141;-84
2023/10/23 08:08:11;;;;;;;59.05;11.85;;;7.00;99.90;;;;;;5018113;28;20116;-82
2023/10/23 08:10:37;;;;;;;37.33;10.07;;;7.10;99.90;;;;;;5019318;28;20077;-83
2023/10/23 08:13:03;;;;;;;38.42;9.93;;;7.10;99.90;;;;;;5016955;28;20080;-83
2023/10/23 08:15:29;;;;;;;29.42;9.38;;;7.30;99.90;;;;;;5025266;28;20049;-84
2023/10/23 08:17:54;;;;;;;33.38;10.93;;;7.40;99.90;;;;;;5026526;28;20057;-83
2023/10/23 08:20:20;;;;;;;38.92;11.25;;;7.50;99.90;;;;;;5025762;28;20057;-83
2023/10/23 08:22:46;;;;;;;14.32;9.75;;;7.50;99.90;;;;;;5025543;28;20049;-83
2023/10/23 08:25:12;;;;;;;14.88;9.95;;;7.60;99.90;;;;;;5026192;28;20080;-84
2023/10/23 08:27:39;;;;;;;39.53;10.25;;;7.70;99.90;;;;;;5025176;28;20064;-83
2023/10/23 08:30:06;;;;;;;36.45;10.75;;;8.10;99.90;;;;;;5025156;28;20057;-84
2023/10/23 08:32:35;;;;;;;40.28;10.63;;;7.80;99.90;;;;;;5025984;28;20049;-82
2023/10/23 08:35:00;;;;;;;21.60;10.18;;;7.80;99.90;;;;;;5027437;28;20057;-84
2023/10/23 08:37:26;;;;;;;30.45;10.90;;;7.90;99.90;;;;;;5025288;28;20048;-84
2023/10/23 08:39:51;;;;;;;27.33;10.70;;;8.00;99.90;;;;;;5024936;28;20046;-84
2023/10/23 08:42:17;;;;;;;15.07;9.70;;;8.00;99.90;;;;;;5026477;28;20116;-84
2023/10/23 08:44:45;;;;;;;13.98;10.05;;;8.10;99.90;;;;;;5044956;28;20747;-86
2023/10/23 08:47:10;;;;;;;34.00;10.43;;;8.20;99.90;;;;;;5020326;28;20042;-82
2023/10/23 08:49:36;;;;;;;11.00;9.38;;;8.20;99.90;;;;;;5009516;28;20048;-84
2023/10/23 08:52:05;;;;;;;15.50;9.35;;;8.30;99.90;;;;;;5015531;28;20041;-83
2023/10/23 08:54:31;;;;;;;10.20;8.98;;;8.40;99.90;;;;;;5012935;28;20049;-86
2023/10/23 08:57:02;;;;;;;11.52;10.10;;;9.20;99.90;;;;;;5029109;28;20483;-84
2023/10/23 08:59:29;;;;;;;11.27;10.07;;;8.60;99.90;;;;;;5028723;28;20045;-85
2023/10/23 09:01:55;;;;;;;17.35;10.15;;;8.80;99.90;;;;;;5029394;28;20072;-86
2023/10/23 09:04:21;;;;;;;12.23;9.45;;;9.20;99.90;;;;;;5028651;28;20049;-85
2023/10/23 09:06:47;;;;;;;10.90;9.88;;;8.80;99.90;;;;;;5019966;28;20168;-86
2023/10/23 09:09:13;;;;;;;16.73;10.68;;;8.80;99.90;;;;;;5025394;28;20045;-86
2023/10/23 09:11:45;;;;;;;13.80;10.15;;;9.00;99.90;;;;;;5010861;28;20050;-86
2023/10/23 09:14:12;;;;;;;15.32;10.45;;;9.00;99.90;;;;;;5029125;28;20075;-85
2023/10/23 09:16:38;;;;;;;18.77;10.27;;;9.00;99.90;;;;;;5028548;28;20137;-85
2023/10/23 09:19:04;;;;;;;29.88;10.65;;;9.00;99.90;;;;;;5015379;28;20141;-86
2023/10/23 09:21:33;;;;;;;17.25;9.90;;;9.10;99.90;;;;;;5023707;28;20107;-85
2023/10/23 09:24:00;;;;;;;29.98;10.57;;;9.10;99.90;;;;;;5030625;28;20050;-85
2023/10/23 09:26:25;;;;;;;21.27;10.90;;;9.30;99.90;;;;;;5030473;28;20128;-85
2023/10/23 09:28:55;;;;;;;14.43;10.65;;;9.40;99.90;;;;;;5029566;28;20144;-85
2023/10/23 09:31:21;;;;;;;11.90;10.68;;;9.60;99.90;;;;;;5029531;28;20504;-85
2023/10/23 09:33:49;;;;;;;16.05;11.02;;;9.70;99.90;;;;;;5028395;28;20053;-86
2023/10/23 09:36:16;;;;;;;22.20;9.68;;;9.80;99.90;;;;;;5008466;28;20152;-84
2023/10/23 09:38:42;;;;;;;40.08;11.55;;;9.80;99.90;;;;;;5009432;28;20053;-86
2023/10/23 09:41:11;;;;;;;42.78;11.18;;;9.70;99.90;;;;;;5024964;28;20195;-85
2023/10/23 09:43:47;;;;;;;23.45;10.70;;;9.80;99.90;;;;;;5027930;28;20084;-84
2023/10/23 09:46:14;;;;;;;24.55;10.15;;;9.80;99.90;;;;;;5010266;28;20049;-85
2023/10/23 09:48:44;;;;;;;24.88;10.73;;;9.90;99.90;;;;;;5028971;28;20046;-85
2023/10/23 09:51:19;;;;;;;16.85;10.88;;;9.90;99.90;;;;;;5029193;28;20118;-84
2023/10/23 09:54:00;;;;;;;19.05;11.02;;;10.00;99.90;;;;;;5028140;28;20103;-84
2023/10/23 09:56:31;;;;;;;12.13;10.88;;;10.00;99.90;;;;;;5027040;28;20703;-85
2023/10/23 09:59:04;;;;;;;15.65;11.32;;;10.10;99.90;;;;;;5031022;28;20049;-85
2023/10/23 10:01:40;;;;;;;15.10;10.95;;;10.10;99.90;;;;;;5030769;28;20645;-84
2023/10/23 10:04:39;;;;;;;13.20;11.50;;;10.20;99.90;;;;;;5029605;28;20049;-85
2023/10/23 10:07:11;;;;;;;13.77;10.75;;;10.30;99.90;;;;;;5016394;28;20124;-85
2023/10/23 10:09:37;;;;;;;14.27;11.25;;;10.40;99.90;;;;;;5026479;28;20198;-84
2023/10/23 10:12:04;;;;;;;12.45;10.73;;;10.40;99.90;;;;;;5024334;28;20057;-83
2023/10/23 10:14:31;;;;;;;14.32;11.40;;;10.50;99.90;;;;;;5023374;28;20045;-84
2023/10/23 10:16:57;;;;;;;15.55;12.07;;;10.50;99.90;;;;;;5043991;28;20056;-84
2023/10/23 10:19:26;;;;;;;14.02;11.95;;;10.50;99.90;;;;;;5009906;28;20051;-82
2023/10/23 10:21:58;;;;;;;22.40;13.93;;;10.50;99.90;;;;;;5047867;28;20060;-83
2023/10/23 10:24:24;;;;;;;19.08;14.18;;;10.50;99.90;;;;;;5049604;28;20568;-84
2023/10/23 10:26:50;;;;;;;17.80;14.05;;;10.50;99.90;;;;;;5031358;28;20091;-86
2023/10/23 10:29:16;;;;;;;18.55;15.10;;;10.50;99.90;;;;;;5028961;28;20048;-84
2023/10/23 10:32:05;;;;;;;20.13;14.43;;;10.60;99.90;;;;;;5030812;28;20513;-84
2023/10/23 10:34:51;;;;;;;16.98;13.38;;;10.60;99.90;;;;;;5048586;28;20470;-83
2023/10/23 10:37:16;;;;;;;18.45;13.68;;;10.60;99.90;;;;;;5047779;28;20124;-82
2023/10/23 10:39:50;;;;;;;16.95;13.55;;;10.60;99.90;;;;;;5047922;28;20468;-82
2023/10/23 10:42:21;;;;;;;19.63;14.48;;;10.60;99.90;;;;;;5049017;28;20490;-82
2023/10/23 10:45:13;;;;;;;19.17;15.10;;;10.70;99.90;;;;;;5030692;28;20037;-82
2023/10/23 10:47:40;;;;;;;18.40;13.98;;;10.70;99.90;;;;;;5049351;28;20049;-82
2023/10/23 10:50:07;;;;;;;16.80;13.32;;;10.70;99.90;;;;;;5049030;28;20036;-83
2023/10/23 10:52:33;;;;;;;16.90;13.68;;;10.70;99.90;;;;;;5030745;28;20051;-82
2023/10/23 10:55:11;;;;;;;17.38;13.40;;;10.70;99.90;;;;;;5031473;28;20188;-84
2023/10/23 10:57:40;;;;;;;20.08;15.15;;;10.70;99.90;;;;;;5030020;28;20053;-82
2023/10/23 11:00:07;;;;;;;16.70;13.73;;;10.70;99.90;;;;;;5048691;28;20049;-84
2023/10/23 11:02:33;;;;;;;17.00;13.30;;;10.70;99.90;;;;;;5030963;28;20056;-83
2023/10/23 11:04:58;;;;;;;19.20;14.38;;;10.70;99.90;;;;;;5029657;28;20060;-83
2023/10/23 11:07:26;;;;;;;17.83;14.15;;;10.70;99.90;;;;;;5045184;28;20765;-83
2023/10/23 11:09:52;;;;;;;19.30;15.57;;;10.70;99.90;;;;;;5048652;28;20040;-84
2023/10/23 11:12:18;;;;;;;19.42;14.65;;;10.70;99.90;;;;;;5030112;28;20049;-83
2023/10/23 11:14:46;;;;;;;18.60;14.80;;;10.70;99.90;;;;;;5047842;28;20052;-83
2023/10/23 11:17:12;;;;;;;21.60;16.23;;;10.90;99.90;;;;;;5048348;28;20033;-83
2023/10/23 11:19:41;;;;;;;20.70;14.82;;;10.80;99.90;;;;;;5048657;28;20041;-84
2023/10/23 11:22:12;;;;;;;19.80;15.18;;;10.90;99.90;;;;;;5030068;28;20625;-83
2023/10/23 11:24:38;;;;;;;20.33;14.60;;;10.90;99.90;;;;;;5048609;28;20495;-85
2023/10/23 11:27:07;;;;;;;19.20;14.63;;;10.90;99.90;;;;;;4999443;28;20049;-83
2023/10/23 11:29:41;;;;;;;21.48;15.13;;;11.00;99.90;;;;;;5028913;28;20045;-84
2023/10/23 11:32:07;;;;;;;20.27;14.68;;;11.10;99.90;;;;;;5041366;28;20057;-84
2023/10/23 11:34:36;;;;;;;19.35;15.10;;;11.00;99.90;;;;;;5049140;28;20044;-82
2023/10/23 11:37:04;;;;;;;19.88;15.95;;;11.00;99.90;;;;;;5047135;28;20102;-82
2023/10/23 11:39:30;;;;;;;20.02;15.25;;;11.00;99.90;;;;;;5046533;28;20060;-83
2023/10/23 11:41:56;;;;;;;21.23;15.68;;;11.00;99.90;;;;;;5026032;28;20045;-83
2023/10/23 11:44:26;;;;;;;20.23;15.82;;;11.10;99.90;;;;;;5032743;28;20449;-84
2023/10/23 11:46:56;;;;;;;20.75;16.13;;;11.10;99.90;;;;;;5029362;28;20784;-84
2023/10/23 11:49:22;;;;;;;22.42;16.48;;;11.20;99.90;;;;;;5029033;28;20106;-84
2023/10/23 11:51:49;;;;;;;20.83;15.90;;;11.30;99.90;;;;;;5045751;28;20045;-84
2023/10/23 11:54:17;;;;;;;23.48;16.63;;;11.40;99.90;;;;;;5046677;28;20041;-83
2023/10/23 11:56:43;;;;;;;22.13;17.15;;;11.40;99.90;;;;;;5045836;28;20126;-84
2023/10/23 11:59:17;;;;;;;22.10;16.40;;;11.40;99.90;;;;;;5049074;28;20049;-85
2023/10/23 12:01:43;;;;;;;24.67;16.95;;;11.40;99.90;;;;;;5030068;28;20356;-85
2023/10/23 12:04:09;;;;;;;21.35;16.55;;;11.50;99.90;;;;;;5048978;28;20037;-85
2023/10/23 12:06:36;;;;;;;22.98;17.10;;;11.60;99.90;;;;;;5013388;28;20090;-85
2023/10/23 12:09:02;;;;;;;22.88;16.70;;;11.60;99.90;;;;;;5030820;28;20049;-87
2023/10/23 12:11:29;;;;;;;20.77;17.23;;;11.60;99.90;;;;;;5048452;28;20132;-85
2023/10/23 12:13:54;;;;;;;21.77;16.75;;;11.50;99.90;;;;;;5030087;28;20053;-85
2023/10/23 12:16:20;;;;;;;23.58;17.50;;;11.50;99.90;;;;;;5050416;28;20047;-88
2023/10/23 12:18:45;;;;;;;21.73;16.33;;;11.50;99.90;;;;;;5035311;28;20079;-86
2023/10/23 12:21:12;;;;;;;23.27;17.80;;;11.50;99.90;;;;;;5051668;28;20486;-85
2023/10/23 12:23:37;;;;;;;21.48;17.20;;;11.50;99.90;;;;;;5032720;28;20817;-87
2023/10/23 12:26:04;;;;;;;24.27;18.40;;;11.60;99.90;;;;;;5033539;28;20072;-86
2023/10/23 12:28:29;;;;;;;23.20;18.05;;;11.60;99.90;;;;;;5053018;28;20128;-87
2023/10/23 12:30:55;;;;;;;23.50;18.60;;;11.60;99.90;;;;;;5052682;28;20128;-86
2023/10/23 12:33:21;;;;;;;21.75;17.08;;;11.70;99.90;;;;;;5032792;28;20052;-89
2023/10/23 12:35:47;;;;;;;21.48;16.73;;;11.90;99.90;;;;;;5035016;28;20167;-87
2023/10/23 12:38:13;;;;;;;21.13;17.67;;;11.60;99.90;;;;;;5033654;28;20045;-86
2023/10/23 12:40:39;;;;;;;21.40;16.80;;;11.70;99.90;;;;;;5031286;28;20076;-84
2023/10/23 12:43:05;;;;;;;23.02;17.40;;;11.70;99.90;;;;;;5050637;28;20043;-85
2023/10/23 12:45:31;;;;;;;21.17;16.98;;;11.70;99.90;;;;;;5049797;28;20049;-84